Jaffrey, NH

12:27 PM EDT on March 30, 2015 (GMT -0400)
Town Pines | | Change Station
CLOSE
Current Station
Personal Weather Station
Location: Rindge, NH
Elevation: 1302 ft
Nearby Weather Stations

Elev 1302 ft 42.74 °N, 72.03 °W | Updated 1 minute ago

Light Snow
Light Snow
32.5 °F
Feels Like 26 °F
N
7.2
Wind Variable Wind from SW
Gusts 8.3 mph

Today
High -- | Low -- °F
--% Chance of Precip.
Yesterday
High -- | Low -- °F
Precip. -- in
6:34 AM 7:11 PM
Waxing Gibbous, 80% visible
Pressure 29.71 in
Visibility 3.0 miles
Clouds Overcast 1400 ft
Windchill 26 °F
Dew Point 32 °F
Humidity 25%
Rainfall -999.00 in
Snow Depth Not available.
UV 2 out of 12
Pollen 2.70 out of 12
Air Quality Not available.
Flu Activity Not available.
SPECI KAFN 301605Z AUTO 21010G16KT 3SM -SN OVC014 00/M03 A2971 RMK AO2 P0000 T00001028

More Conditions Fewer Conditions

Pressure 29.71 in
Visibility 3.0 miles
Clouds Overcast 1400 ft
Windchill 26 °F
Dew Point 32 °F
Humidity 25%
Rainfall -999.00 in
Snow Depth Not available.
UV 2 out of 12
Pollen 2.70 out of 12
Air Quality Not available.
Flu Activity Not available.
SPECI KAFN 301605Z AUTO 21010G16KT 3SM -SN OVC014 00/M03 A2971 RMK AO2 P0000 T00001028

More Conditions Fewer Conditions

10-Day Weather Forecast

Almanac

Astronomy

Mar. 30, 2015 Rise Set
Actual Time
Civil Twilight
Nautical Twilight
Astronomical Twilight
Moon
Length of Visible Light
Length of Day
Tomorrow will be .
, % of the Moon is Illuminated

Today's Extremes

State Highs State Lows

Community

WunderPhotos

Upload Photos

1,809,532 photos uploaded!

WunderBlogs® & News

Nearby

Air Quality

  Air Quality AQ Index Pollutant
Not available.

Snow Depth

Station Depth Elevation

Earthquake Activity

City Distance Mag. Time & Date
Minimum magnitude displayed is 2.5.

Coastal Water Temperatures

Place Temperature

Stations

Nearby Weather Stations

Station Location Temp. Windchill Dew Point Humidity Wind Precip. Elev Updated Type